createdAt,value
2023-02-06T00:01:19.844Z,16.52
2023-02-06T00:03:46.331Z,14.75
2023-02-06T00:06:12.763Z,16.80
2023-02-06T00:08:39.491Z,17.38
2023-02-06T00:11:08.181Z,16.45
2023-02-06T00:13:35.950Z,17.45
2023-02-06T00:16:02.577Z,17.38
2023-02-06T00:18:29.354Z,17.70
2023-02-06T00:20:55.783Z,17.08
2023-02-06T00:23:22.352Z,16.73
2023-02-06T00:25:48.814Z,16.70
2023-02-06T00:28:15.299Z,16.35
2023-02-06T00:30:41.816Z,18.05
2023-02-06T00:33:08.405Z,16.83
2023-02-06T00:35:35.111Z,18.98
2023-02-06T00:38:02.426Z,17.08
2023-02-06T00:40:29.412Z,18.40
2023-02-06T00:42:55.956Z,20.40
2023-02-06T00:45:22.354Z,19.05
2023-02-06T00:47:48.761Z,20.10
2023-02-06T00:50:16.055Z,18.23
2023-02-06T00:52:43.058Z,20.27
2023-02-06T00:55:10.198Z,20.65
2023-02-06T00:57:36.650Z,21.27
2023-02-06T01:00:06.652Z,17.92
2023-02-06T01:02:33.322Z,20.38
2023-02-06T01:04:59.954Z,19.77
2023-02-06T01:07:26.534Z,17.90
2023-02-06T01:09:52.916Z,18.30
2023-02-06T01:12:19.431Z,19.17
2023-02-06T01:14:47.754Z,19.58
2023-02-06T01:17:14.181Z,19.10
2023-02-06T01:19:40.823Z,19.92
2023-02-06T01:22:07.578Z,19.48
2023-02-06T01:24:34.012Z,21.15
2023-02-06T01:27:00.429Z,19.88
2023-02-06T01:29:26.960Z,21.40
2023-02-06T01:31:53.360Z,20.27
2023-02-06T01:34:19.813Z,20.65
2023-02-06T01:36:46.291Z,21.25
2023-02-06T01:39:12.774Z,20.58
2023-02-06T01:41:39.306Z,20.02
2023-02-06T01:44:13.395Z,20.52
2023-02-06T01:46:41.830Z,20.33
2023-02-06T01:49:12.671Z,20.25
2023-02-06T01:51:40.207Z,20.03
2023-02-06T01:54:08.551Z,21.20
2023-02-06T01:56:41.857Z,20.88
2023-02-06T01:59:08.289Z,20.17
2023-02-06T02:01:34.843Z,20.23
2023-02-06T02:04:06.210Z,21.38
2023-02-06T02:06:34.144Z,19.60
2023-02-06T02:09:02.784Z,20.27
2023-02-06T02:11:33.785Z,21.33
2023-02-06T02:14:01.914Z,21.48
2023-02-06T02:16:45.762Z,21.85
2023-02-06T02:19:37.464Z,22.17
2023-02-06T02:22:50.104Z,22.90
2023-02-06T02:25:54.308Z,19.55
2023-02-06T02:28:48.197Z,19.25
2023-02-06T02:31:30.088Z,20.73
2023-02-06T02:34:21.459Z,20.70
2023-02-06T02:37:11.352Z,19.92
2023-02-06T02:39:47.267Z,19.67
2023-02-06T02:42:23.086Z,21.70
2023-02-06T02:45:19.308Z,20.33
2023-02-06T02:48:04.741Z,20.98
2023-02-06T02:50:33.114Z,21.35
2023-02-06T02:53:02.026Z,21.75
2023-02-06T02:55:28.789Z,22.27
2023-02-06T02:58:05.177Z,21.73
2023-02-06T03:00:35.432Z,23.52
2023-02-06T03:03:04.718Z,26.38
2023-02-06T03:05:33.145Z,22.67
2023-02-06T03:08:27.105Z,21.85
2023-02-06T03:11:14.977Z,21.40
2023-02-06T03:13:50.429Z,19.77
2023-02-06T03:16:28.855Z,22.13
2023-02-06T03:19:13.615Z,21.65
2023-02-06T03:21:42.544Z,21.67
2023-02-06T03:24:26.278Z,21.58
2023-02-06T03:26:59.948Z,23.48
2023-02-06T03:29:29.262Z,22.55
2023-02-06T03:32:00.396Z,22.65
2023-02-06T03:34:42.171Z,23.63
2023-02-06T03:37:09.204Z,22.50
2023-02-06T03:39:35.992Z,20.77
2023-02-06T03:42:04.512Z,22.95
2023-02-06T03:44:35.166Z,23.60
2023-02-06T03:47:05.001Z,23.35
2023-02-06T03:49:32.899Z,22.75
2023-02-06T03:52:10.397Z,22.15
2023-02-06T03:54:41.849Z,22.90
2023-02-06T03:57:12.702Z,22.85
2023-02-06T03:59:39.234Z,21.50
2023-02-06T04:02:06.164Z,22.42
2023-02-06T04:04:38.476Z,21.63
2023-02-06T04:07:12.721Z,24.27
2023-02-06T04:09:39.932Z,21.17
2023-02-06T04:12:06.817Z,21.40
2023-02-06T04:14:33.471Z,23.10
2023-02-06T04:16:59.897Z,24.70
2023-02-06T04:19:26.353Z,25.83
2023-02-06T04:21:52.789Z,23.67
2023-02-06T04:24:19.187Z,23.80
2023-02-06T04:26:45.647Z,23.98
2023-02-06T04:29:12.790Z,24.02
2023-02-06T04:31:40.425Z,24.65
2023-02-06T04:34:07.143Z,22.08
2023-02-06T04:36:33.873Z,23.27
2023-02-06T04:39:00.565Z,22.50
2023-02-06T04:41:27.122Z,21.35
2023-02-06T04:43:53.584Z,21.83
2023-02-06T04:46:20.006Z,22.50
2023-02-06T04:48:46.962Z,21.25
2023-02-06T04:51:13.731Z,21.52
2023-02-06T04:53:40.160Z,21.17
2023-02-06T04:56:10.347Z,22.75
2023-02-06T04:58:37.582Z,21.90
2023-02-06T05:01:04.059Z,22.10
2023-02-06T05:03:30.672Z,22.30
2023-02-06T05:05:59.888Z,21.55
2023-02-06T05:08:26.685Z,21.60
2023-02-06T05:10:53.224Z,21.90
2023-02-06T05:13:19.808Z,22.00
2023-02-06T05:15:46.346Z,21.30
2023-02-06T05:18:13.609Z,20.98
2023-02-06T05:20:40.040Z,23.90
2023-02-06T05:23:06.561Z,22.58
2023-02-06T05:25:35.348Z,22.70
2023-02-06T05:28:06.311Z,25.05
2023-02-06T05:30:34.224Z,23.83
2023-02-06T05:33:01.102Z,27.77
2023-02-06T05:35:28.314Z,22.95
2023-02-06T05:37:54.827Z,23.38
2023-02-06T05:40:21.232Z,22.45
2023-02-06T05:42:47.745Z,19.23
2023-02-06T05:45:14.264Z,23.77
2023-02-06T05:47:40.721Z,22.65
2023-02-06T05:50:07.370Z,21.75
2023-02-06T05:52:33.904Z,21.08
2023-02-06T05:55:00.306Z,22.08
2023-02-06T05:57:26.847Z,22.42
2023-02-06T05:59:53.349Z,23.85
2023-02-06T06:02:19.777Z,23.05
2023-02-06T06:04:46.361Z,20.92
2023-02-06T06:07:12.843Z,21.60
2023-02-06T06:09:39.356Z,21.38
2023-02-06T06:12:06.100Z,21.90
2023-02-06T06:14:32.526Z,21.38
2023-02-06T06:16:58.907Z,21.60
2023-02-06T06:19:25.408Z,22.40
2023-02-06T06:21:51.832Z,22.15
2023-02-06T06:24:18.483Z,20.70
2023-02-06T06:26:44.946Z,22.13
2023-02-06T06:29:11.329Z,20.35
2023-02-06T06:31:38.172Z,22.77
2023-02-06T06:34:04.595Z,22.25
2023-02-06T06:36:31.042Z,21.85
2023-02-06T06:38:57.569Z,21.98
2023-02-06T06:41:24.040Z,21.40
2023-02-06T06:43:51.596Z,23.08
2023-02-06T06:46:18.908Z,22.70
2023-02-06T06:48:45.318Z,21.40
2023-02-06T06:51:11.741Z,20.73
2023-02-06T06:53:39.864Z,21.55
2023-02-06T06:56:08.284Z,21.92
2023-02-06T06:58:34.696Z,21.20
2023-02-06T07:01:01.250Z,21.10
2023-02-06T07:03:27.939Z,21.08
2023-02-06T07:05:54.427Z,22.30
2023-02-06T07:08:21.016Z,23.20
2023-02-06T07:10:48.240Z,22.08
2023-02-06T07:13:15.505Z,23.75
2023-02-06T07:15:42.762Z,22.13
2023-02-06T07:18:11.584Z,21.38
2023-02-06T07:20:38.202Z,23.45
2023-02-06T07:23:05.621Z,20.63
2023-02-06T07:25:32.712Z,22.25
2023-02-06T07:27:59.448Z,21.83
2023-02-06T07:30:26.096Z,22.17
2023-02-06T07:32:52.548Z,21.40
2023-02-06T07:35:19.114Z,22.08
2023-02-06T07:37:45.555Z,22.17
2023-02-06T07:40:12.563Z,23.48
2023-02-06T07:42:40.060Z,22.73
2023-02-06T07:45:19.018Z,21.42
2023-02-06T07:47:45.463Z,20.92
2023-02-06T07:50:12.066Z,22.27
2023-02-06T07:52:38.812Z,20.17
2023-02-06T07:55:05.705Z,22.30
2023-02-06T07:57:32.125Z,21.50
2023-02-06T07:59:58.557Z,20.48
2023-02-06T08:02:25.033Z,21.95
2023-02-06T08:04:51.449Z,20.40
2023-02-06T08:07:18.296Z,19.17
2023-02-06T08:09:44.938Z,19.05
2023-02-06T08:12:12.056Z,19.38
2023-02-06T08:14:38.723Z,19.45
2023-02-06T08:17:05.175Z,18.95
2023-02-06T08:19:31.582Z,17.58
2023-02-06T08:21:58.018Z,16.45
2023-02-06T08:24:24.414Z,17.27
2023-02-06T08:26:51.026Z,16.23
2023-02-06T08:29:17.519Z,16.75
2023-02-06T08:31:44.036Z,16.08
2023-02-06T08:34:12.688Z,16.35
2023-02-06T08:36:39.355Z,16.77
2023-02-06T08:39:06.070Z,15.45
2023-02-06T08:41:37.898Z,14.27
2023-02-06T08:44:07.628Z,14.82
2023-02-06T08:46:34.164Z,15.43
2023-02-06T08:49:04.703Z,14.77
2023-02-06T08:51:32.828Z,16.35
2023-02-06T08:54:01.554Z,15.75
2023-02-06T08:56:28.795Z,14.82
2023-02-06T08:58:56.338Z,13.80
2023-02-06T09:01:22.870Z,17.00
2023-02-06T09:03:49.317Z,14.48
2023-02-06T09:06:16.171Z,14.60
2023-02-06T09:08:42.933Z,13.88
2023-02-06T09:11:12.790Z,14.38
2023-02-06T09:13:39.408Z,14.55
2023-02-06T09:16:07.043Z,13.02
2023-02-06T09:18:33.953Z,15.18
2023-02-06T09:21:13.142Z,14.00
2023-02-06T09:23:43.634Z,14.00
2023-02-06T09:26:11.634Z,13.18
2023-02-06T09:28:38.223Z,13.23
2023-02-06T09:31:04.809Z,11.93
2023-02-06T09:33:31.281Z,13.75
2023-02-06T09:36:05.471Z,13.32
2023-02-06T09:38:32.173Z,12.95
2023-02-06T09:41:02.694Z,11.45
2023-02-06T09:43:32.775Z,12.55
2023-02-06T09:46:04.655Z,12.68
2023-02-06T09:48:35.030Z,11.38
2023-02-06T09:51:18.819Z,13.48
2023-02-06T09:54:07.491Z,11.90
2023-02-06T09:56:45.351Z,11.93
2023-02-06T09:59:29.409Z,10.73
2023-02-06T10:02:36.849Z,10.75
2023-02-06T10:05:22.148Z,9.50
2023-02-06T10:08:02.226Z,10.13
2023-02-06T10:10:31.397Z,10.98
2023-02-06T10:13:10.085Z,9.52
2023-02-06T10:15:43.090Z,8.32
2023-02-06T10:18:16.872Z,8.98
2023-02-06T10:21:02.287Z,8.63
2023-02-06T10:23:39.332Z,9.35
2023-02-06T10:26:23.750Z,7.30
2023-02-06T10:28:55.862Z,9.35
2023-02-06T10:31:25.213Z,10.23
2023-02-06T10:34:17.407Z,9.05
2023-02-06T10:36:53.057Z,8.95
2023-02-06T10:39:39.313Z,9.73
2023-02-06T10:42:18.306Z,6.80
2023-02-06T10:44:53.439Z,7.18
2023-02-06T10:50:14.298Z,4.60
2023-02-06T10:52:41.274Z,5.00
2023-02-06T10:55:25.012Z,6.10
2023-02-06T10:58:02.710Z,5.30
2023-02-06T11:00:30.623Z,4.75
2023-02-06T11:03:07.485Z,4.80
2023-02-06T11:05:35.852Z,4.90
2023-02-06T11:08:24.408Z,5.75
2023-02-06T11:10:51.157Z,5.25
2023-02-06T11:13:33.522Z,4.18
2023-02-06T11:16:08.255Z,4.93
2023-02-06T11:18:38.981Z,5.28
2023-02-06T11:21:07.521Z,9.52
2023-02-06T11:23:34.990Z,8.07
2023-02-06T11:26:14.184Z,5.88
2023-02-06T11:28:55.986Z,6.15
2023-02-06T11:31:45.192Z,5.28
2023-02-06T11:34:34.972Z,4.45
2023-02-06T11:37:04.497Z,4.72
2023-02-06T11:39:35.260Z,4.10
2023-02-06T11:42:21.959Z,3.75
2023-02-06T11:44:48.855Z,4.43
2023-02-06T11:47:36.629Z,4.05
2023-02-06T11:50:13.075Z,3.50
2023-02-06T11:52:46.631Z,4.22
2023-02-06T11:55:36.723Z,4.38
2023-02-06T11:58:09.312Z,5.03
2023-02-06T12:00:36.979Z,4.88
2023-02-06T12:03:06.331Z,4.68
2023-02-06T12:05:40.600Z,4.65
2023-02-06T12:08:18.461Z,3.78
2023-02-06T12:11:01.305Z,3.85
2023-02-06T12:13:33.715Z,3.78
2023-02-06T12:16:03.896Z,3.83
2023-02-06T12:18:36.882Z,3.75
2023-02-06T12:21:16.615Z,3.25
2023-02-06T12:23:48.715Z,3.85
2023-02-06T12:26:19.505Z,3.88
2023-02-06T12:29:09.664Z,4.20
2023-02-06T12:32:14.791Z,3.92
2023-02-06T12:35:00.142Z,7.65
2023-02-06T12:37:39.684Z,5.22
2023-02-06T12:40:18.523Z,4.03
2023-02-06T12:43:01.544Z,4.95
2023-02-06T12:45:45.220Z,5.55
2023-02-06T12:48:14.781Z,5.10
2023-02-06T12:51:05.650Z,4.85
2023-02-06T12:53:43.739Z,5.47
2023-02-06T12:56:24.993Z,5.80
2023-02-06T12:59:02.319Z,5.70
2023-02-06T13:01:47.648Z,5.45
2023-02-06T13:04:18.675Z,5.10
2023-02-06T13:07:11.155Z,4.70
2023-02-06T13:09:47.049Z,4.95
2023-02-06T13:12:22.638Z,4.85
2023-02-06T13:14:53.229Z,5.10
2023-02-06T13:17:44.892Z,3.85
2023-02-06T13:20:18.506Z,3.83
2023-02-06T13:22:51.827Z,4.20
2023-02-06T13:25:30.627Z,3.67
2023-02-06T13:28:02.325Z,4.15
2023-02-06T13:33:13.557Z,3.40
2023-02-06T13:36:04.573Z,3.53
2023-02-06T13:38:33.777Z,3.72
2023-02-06T13:41:15.360Z,3.63
2023-02-06T13:43:47.239Z,4.03
2023-02-06T13:49:12.993Z,2.90
2023-02-06T13:51:39.384Z,3.55
2023-02-06T13:54:15.059Z,3.92
2023-02-06T13:56:56.690Z,4.65
2023-02-06T13:59:28.158Z,3.30
2023-02-06T14:01:55.739Z,4.75
2023-02-06T14:04:28.517Z,3.70
2023-02-06T14:07:15.422Z,3.35
2023-02-06T14:09:47.764Z,4.35
2023-02-06T14:12:47.252Z,3.42
2023-02-06T14:15:22.247Z,3.45
2023-02-06T14:18:13.494Z,3.80
2023-02-06T14:20:49.044Z,3.78
2023-02-06T14:23:33.038Z,4.07
2023-02-06T14:26:27.060Z,3.25
2023-02-06T14:29:24.430Z,3.97
2023-02-06T14:32:10.126Z,3.90
2023-02-06T14:35:02.201Z,4.00
2023-02-06T14:40:33.430Z,3.90
2023-02-06T14:43:04.134Z,4.55
2023-02-06T14:45:41.705Z,3.60
2023-02-06T14:48:20.002Z,3.85
2023-02-06T14:50:50.672Z,3.92
2023-02-06T14:53:25.233Z,3.75
2023-02-06T14:55:52.025Z,4.05
2023-02-06T14:58:29.474Z,3.78
2023-02-06T15:01:10.663Z,3.30
2023-02-06T15:03:37.215Z,4.25
2023-02-06T15:06:06.862Z,6.00
2023-02-06T15:08:33.636Z,4.47
2023-02-06T15:11:03.398Z,4.35
2023-02-06T15:13:35.183Z,3.60
2023-02-06T15:18:29.669Z,4.72
2023-02-06T15:21:00.198Z,3.97
2023-02-06T15:23:43.876Z,4.22
2023-02-06T15:26:29.107Z,4.28
2023-02-06T15:29:00.568Z,4.03
2023-02-06T15:31:28.099Z,5.00
2023-02-06T15:33:57.819Z,4.47
2023-02-06T15:36:28.691Z,3.78
2023-02-06T15:38:55.878Z,3.70
2023-02-06T15:41:22.986Z,3.58
2023-02-06T15:43:51.547Z,3.60
2023-02-06T15:46:18.049Z,3.72
2023-02-06T15:48:48.813Z,4.07
2023-02-06T15:51:49.451Z,3.60
2023-02-06T15:54:20.131Z,3.92
2023-02-06T15:57:01.595Z,4.82
2023-02-06T15:59:29.125Z,4.78
2023-02-06T16:01:57.993Z,4.72
2023-02-06T16:04:29.931Z,4.53
2023-02-06T16:07:04.033Z,6.05
2023-02-06T16:09:30.566Z,4.75
2023-02-06T16:11:58.277Z,5.03
2023-02-06T16:14:35.209Z,4.53
2023-02-06T16:17:13.876Z,4.00
2023-02-06T16:19:52.827Z,3.60
2023-02-06T16:22:34.850Z,5.82
2023-02-06T16:25:24.616Z,3.88
2023-02-06T16:27:52.356Z,3.30
2023-02-06T16:30:28.042Z,3.22
2023-02-06T16:32:56.884Z,4.53
2023-02-06T16:35:23.999Z,4.43
2023-02-06T16:37:52.548Z,4.47
2023-02-06T16:40:19.972Z,4.82
2023-02-06T16:42:47.607Z,3.85
2023-02-06T16:45:26.264Z,4.60
2023-02-06T16:47:54.036Z,3.63
2023-02-06T16:50:21.575Z,4.22
2023-02-06T16:52:51.170Z,4.85
2023-02-06T16:55:23.591Z,4.45
2023-02-06T16:57:52.791Z,3.85
2023-02-06T17:00:31.342Z,3.78
2023-02-06T17:02:58.093Z,3.67
2023-02-06T17:05:26.370Z,4.32
2023-02-06T17:07:53.987Z,3.45
2023-02-06T17:10:23.466Z,4.13
2023-02-06T17:12:50.459Z,4.78
2023-02-06T17:15:18.775Z,4.43
2023-02-06T17:17:45.981Z,4.07
2023-02-06T17:20:35.305Z,4.50
2023-02-06T17:23:02.044Z,5.13
2023-02-06T17:25:28.486Z,4.20
2023-02-06T17:27:55.954Z,4.65
2023-02-06T17:30:24.562Z,3.75
2023-02-06T17:32:51.477Z,4.15
2023-02-06T17:35:19.467Z,4.35
2023-02-06T17:37:46.627Z,3.80
2023-02-06T17:40:24.078Z,5.60
2023-02-06T17:42:50.583Z,6.20
2023-02-06T17:45:17.205Z,4.53
2023-02-06T17:47:44.011Z,4.90
2023-02-06T17:50:14.159Z,6.72
2023-02-06T17:52:40.652Z,7.03
2023-02-06T17:55:07.823Z,6.38
2023-02-06T17:57:35.385Z,5.45
2023-02-06T18:00:02.546Z,4.95
2023-02-06T18:02:31.669Z,5.20
2023-02-06T18:04:59.818Z,6.00
2023-02-06T18:07:27.310Z,5.13
2023-02-06T18:09:53.850Z,5.05
2023-02-06T18:12:20.551Z,4.47
2023-02-06T18:14:48.450Z,4.78
2023-02-06T18:17:15.000Z,5.40
2023-02-06T18:19:42.420Z,5.13
2023-02-06T18:22:11.729Z,5.60
2023-02-06T18:24:39.022Z,5.63
2023-02-06T18:27:06.646Z,5.70
2023-02-06T18:29:48.987Z,6.00
2023-02-06T18:32:17.115Z,6.28
2023-02-06T18:34:43.707Z,6.38
2023-02-06T18:37:10.181Z,6.22
2023-02-06T18:39:37.699Z,5.80
2023-02-06T18:42:22.859Z,5.63
2023-02-06T18:44:49.334Z,5.75
2023-02-06T18:47:17.467Z,7.28
2023-02-06T18:49:43.893Z,7.68
2023-02-06T18:52:10.533Z,6.78
2023-02-06T18:54:38.913Z,5.88
2023-02-06T18:57:05.996Z,5.30
2023-02-06T18:59:32.457Z,6.05
2023-02-06T19:01:58.936Z,7.75
2023-02-06T19:04:25.716Z,9.95
2023-02-06T19:06:52.240Z,11.00
2023-02-06T19:09:20.062Z,9.30
2023-02-06T19:11:47.697Z,5.82
2023-02-06T19:14:16.796Z,5.30
2023-02-06T19:16:47.959Z,5.25
2023-02-06T19:19:14.882Z,5.95
2023-02-06T19:21:41.790Z,6.65
2023-02-06T19:24:10.994Z,5.93
2023-02-06T19:26:37.688Z,6.43
2023-02-06T19:29:04.279Z,9.43
2023-02-06T19:31:31.938Z,7.30
2023-02-06T19:34:00.440Z,8.43
2023-02-06T19:36:27.719Z,6.90
2023-02-06T19:38:56.858Z,5.82
2023-02-06T19:41:25.461Z,5.82
2023-02-06T19:43:53.577Z,5.80
2023-02-06T19:46:23.881Z,5.90
2023-02-06T19:48:51.649Z,6.18
2023-02-06T19:51:26.771Z,5.70
2023-02-06T19:53:54.546Z,6.25
2023-02-06T19:56:25.679Z,5.05
2023-02-06T19:58:59.899Z,7.05
2023-02-06T20:01:29.024Z,7.45
2023-02-06T20:03:56.703Z,9.35
2023-02-06T20:06:23.582Z,6.95
2023-02-06T20:08:50.214Z,6.60
2023-02-06T20:11:21.636Z,7.68
2023-02-06T20:13:51.852Z,6.78
2023-02-06T20:16:22.756Z,7.65
2023-02-06T20:18:49.427Z,7.65
2023-02-06T20:21:31.257Z,6.45
2023-02-06T20:24:03.215Z,6.57
2023-02-06T20:26:32.942Z,7.20
2023-02-06T20:28:59.924Z,7.28
2023-02-06T20:31:27.627Z,7.15
2023-02-06T20:33:54.827Z,6.68
2023-02-06T20:36:24.114Z,7.15
2023-02-06T20:38:53.026Z,6.15
2023-02-06T20:41:20.888Z,6.53
2023-02-06T20:43:48.157Z,6.25
2023-02-06T20:46:17.273Z,6.50
2023-02-06T20:48:45.793Z,6.18
2023-02-06T20:51:13.610Z,6.80
2023-02-06T20:53:40.842Z,7.15
2023-02-06T20:56:11.503Z,5.95
2023-02-06T20:58:38.206Z,7.07
2023-02-06T21:01:19.974Z,5.55
2023-02-06T21:06:14.389Z,6.43
2023-02-06T21:08:41.735Z,5.28
2023-02-06T21:11:08.528Z,4.93
2023-02-06T21:13:35.016Z,5.03
2023-02-06T21:16:01.733Z,5.03
2023-02-06T21:18:30.542Z,5.30
2023-02-06T21:21:06.645Z,5.55
2023-02-06T21:23:33.728Z,6.07
2023-02-06T21:26:00.277Z,6.13
2023-02-06T21:28:26.755Z,6.72
2023-02-06T21:31:00.848Z,5.30
2023-02-06T21:33:27.600Z,7.28
2023-02-06T21:35:54.214Z,5.88
2023-02-06T21:38:20.722Z,6.72
2023-02-06T21:40:47.518Z,5.80
2023-02-06T21:43:16.721Z,5.97
2023-02-06T21:45:44.038Z,5.72
2023-02-06T21:48:10.671Z,4.80
2023-02-06T21:50:39.468Z,5.00
2023-02-06T21:53:06.603Z,5.15
2023-02-06T21:55:33.116Z,4.88
2023-02-06T21:58:00.927Z,5.07
2023-02-06T22:00:28.576Z,5.35
2023-02-06T22:02:55.116Z,5.38
2023-02-06T22:05:21.602Z,4.82
2023-02-06T22:07:48.055Z,5.00
2023-02-06T22:10:14.577Z,5.50
2023-02-06T22:12:40.990Z,5.30
2023-02-06T22:15:08.205Z,4.90
2023-02-06T22:17:35.446Z,4.85
2023-02-06T22:20:01.933Z,5.28
2023-02-06T22:22:28.375Z,5.00
2023-02-06T22:24:54.913Z,4.97
2023-02-06T22:27:21.527Z,4.90
2023-02-06T22:29:48.320Z,5.25
2023-02-06T22:32:14.756Z,5.45
2023-02-06T22:34:41.400Z,5.30
2023-02-06T22:37:08.890Z,6.32
2023-02-06T22:39:35.440Z,5.60
2023-02-06T22:42:02.225Z,5.40
2023-02-06T22:44:28.696Z,5.53
2023-02-06T22:46:55.180Z,5.18
2023-02-06T22:49:21.869Z,6.00
2023-02-06T22:51:48.323Z,5.53
2023-02-06T22:54:14.933Z,5.72
2023-02-06T22:56:42.618Z,6.30
2023-02-06T22:59:20.886Z,5.03
2023-02-06T23:01:53.468Z,6.25
2023-02-06T23:04:26.328Z,6.35
2023-02-06T23:06:53.767Z,5.47
2023-02-06T23:09:27.588Z,6.40
2023-02-06T23:11:55.382Z,5.97
2023-02-06T23:14:21.901Z,5.97
2023-02-06T23:16:48.460Z,5.95
2023-02-06T23:19:16.067Z,6.05
2023-02-06T23:21:45.290Z,5.72
2023-02-06T23:24:12.922Z,5.53
2023-02-06T23:26:42.728Z,6.13
2023-02-06T23:29:10.820Z,6.68
2023-02-06T23:31:37.512Z,5.93
2023-02-06T23:34:04.099Z,6.88
2023-02-06T23:36:30.650Z,6.75
2023-02-06T23:38:57.189Z,6.18
2023-02-06T23:41:26.610Z,6.00
2023-02-06T23:44:00.547Z,6.03
2023-02-06T23:46:28.974Z,7.15
2023-02-06T23:48:55.809Z,6.63
2023-02-06T23:51:23.459Z,6.45
2023-02-06T23:53:51.129Z,6.93
2023-02-06T23:56:27.855Z,7.20
2023-02-06T23:58:56.200Z,7.70
